createdAt,value
2018-03-25T00:00:42.322Z,17.73
2018-03-25T00:01:42.330Z,17.8
2018-03-25T00:02:42.296Z,17.81
2018-03-25T00:03:42.303Z,17.73
2018-03-25T00:04:42.305Z,17.78
2018-03-25T00:05:42.328Z,17.81
2018-03-25T00:06:42.349Z,17.68
2018-03-25T00:07:42.308Z,17.76
2018-03-25T00:08:42.302Z,17.77
2018-03-25T00:09:42.308Z,17.7
2018-03-25T00:10:42.320Z,17.74
2018-03-25T00:11:42.337Z,17.78
2018-03-25T00:12:42.333Z,17.67
2018-03-25T00:13:42.292Z,17.74
2018-03-25T00:14:42.359Z,17.78
2018-03-25T00:15:42.310Z,17.67
2018-03-25T00:16:42.332Z,17.74
2018-03-25T00:17:42.376Z,17.76
2018-03-25T00:18:42.315Z,17.66
2018-03-25T00:19:42.307Z,17.71
2018-03-25T00:20:42.370Z,17.77
2018-03-25T00:21:42.339Z,17.64
2018-03-25T00:22:42.290Z,17.68
2018-03-25T00:23:42.343Z,17.73
2018-03-25T00:24:42.306Z,17.66
2018-03-25T00:25:42.356Z,17.71
2018-03-25T00:26:42.343Z,17.74
2018-03-25T00:27:42.702Z,17.66
2018-03-25T00:28:42.307Z,17.7
2018-03-25T00:29:42.297Z,17.73
2018-03-25T00:30:42.356Z,17.64
2018-03-25T00:31:42.584Z,17.68
2018-03-25T00:32:42.332Z,17.7
2018-03-25T00:33:42.300Z,17.61
2018-03-25T00:34:42.364Z,17.64
2018-03-25T00:35:42.321Z,17.71
2018-03-25T00:36:42.330Z,17.63
2018-03-25T00:37:42.356Z,17.67
2018-03-25T00:38:42.292Z,17.68
2018-03-25T00:39:42.299Z,17.59
2018-03-25T00:40:42.342Z,17.64
2018-03-25T00:41:42.337Z,17.67
2018-03-25T00:42:42.334Z,17.57
2018-03-25T00:43:42.298Z,17.66
2018-03-25T00:44:42.276Z,17.66
2018-03-25T00:45:42.311Z,17.54
2018-03-25T00:46:42.290Z,17.61
2018-03-25T00:47:42.341Z,17.66
2018-03-25T00:48:42.326Z,17.57
2018-03-25T00:49:42.295Z,17.61
2018-03-25T00:50:42.524Z,17.64
2018-03-25T00:51:42.285Z,17.53
2018-03-25T00:52:42.289Z,17.61
2018-03-25T00:53:42.379Z,17.64
2018-03-25T00:54:42.333Z,17.57
2018-03-25T00:55:42.310Z,17.6
2018-03-25T00:56:42.291Z,17.64
2018-03-25T00:57:42.374Z,17.54
2018-03-25T00:58:42.308Z,17.59
2018-03-25T00:59:42.295Z,17.61
2018-03-25T01:00:42.300Z,17.53
2018-03-25T01:01:42.561Z,17.59
2018-03-25T01:02:42.334Z,17.61
2018-03-25T01:03:42.298Z,17.56
2018-03-25T01:04:42.313Z,17.59
2018-03-25T01:05:42.298Z,17.61
2018-03-25T01:06:42.332Z,17.5
2018-03-25T01:07:42.616Z,17.53
2018-03-25T01:08:42.382Z,17.6
2018-03-25T01:09:42.284Z,17.5
2018-03-25T01:10:42.316Z,17.54
2018-03-25T01:11:42.327Z,17.6
2018-03-25T01:12:46.156Z,17.49
2018-03-25T01:13:42.322Z,17.54
2018-03-25T01:14:42.354Z,17.57
2018-03-25T01:15:42.302Z,17.5
2018-03-25T01:16:42.310Z,17.54
2018-03-25T01:17:42.306Z,17.56
2018-03-25T01:18:42.354Z,17.49
2018-03-25T01:19:42.420Z,17.53
2018-03-25T01:20:42.308Z,17.54
2018-03-25T01:21:42.361Z,17.46
2018-03-25T01:22:42.334Z,17.52
2018-03-25T01:23:42.324Z,17.56
2018-03-25T01:24:42.339Z,17.46
2018-03-25T01:25:42.289Z,17.49
2018-03-25T01:26:42.396Z,17.56
2018-03-25T01:27:42.357Z,17.45
2018-03-25T01:28:42.332Z,17.5
2018-03-25T01:29:42.334Z,17.53
2018-03-25T01:30:42.331Z,17.46
2018-03-25T01:31:42.407Z,17.5
2018-03-25T01:32:42.328Z,17.53
2018-03-25T01:33:42.294Z,17.45
2018-03-25T01:34:42.297Z,17.5
2018-03-25T01:35:42.307Z,17.53
2018-03-25T01:36:42.338Z,17.43
2018-03-25T01:37:42.329Z,17.48
2018-03-25T01:38:42.333Z,17.53
2018-03-25T01:39:42.336Z,17.43
2018-03-25T01:40:42.330Z,17.49
2018-03-25T01:41:42.322Z,17.52
2018-03-25T01:42:42.302Z,17.43
2018-03-25T01:43:42.311Z,17.48
2018-03-25T01:44:42.349Z,17.5
2018-03-25T01:45:42.316Z,17.43
2018-03-25T01:46:42.326Z,17.46
2018-03-25T01:47:42.296Z,17.5
2018-03-25T01:48:42.343Z,17.36
2018-03-25T01:49:42.469Z,17.46
2018-03-25T01:50:42.297Z,17.52
2018-03-25T01:51:42.325Z,17.38
2018-03-25T01:52:42.326Z,17.43
2018-03-25T01:53:42.303Z,17.45
2018-03-25T01:54:42.385Z,17.33
2018-03-25T01:55:42.440Z,17.38
2018-03-25T01:56:42.327Z,17.45
2018-03-25T01:57:42.306Z,17.35
2018-03-25T01:58:42.319Z,17.39
2018-03-25T01:59:42.297Z,17.43
2018-03-25T02:00:42.296Z,17.33
2018-03-25T02:01:42.327Z,17.38
2018-03-25T02:02:42.324Z,17.45
2018-03-25T02:03:42.290Z,17.35
2018-03-25T02:04:42.280Z,17.4
2018-03-25T02:05:42.297Z,17.42
2018-03-25T02:06:42.287Z,17.32
2018-03-25T02:07:42.322Z,17.36
2018-03-25T02:08:42.321Z,17.42
2018-03-25T02:09:42.325Z,17.35
2018-03-25T02:10:42.290Z,17.38
2018-03-25T02:11:42.297Z,17.42
2018-03-25T02:12:42.332Z,17.29
2018-03-25T02:13:42.316Z,17.35
2018-03-25T02:14:42.305Z,17.4
2018-03-25T02:15:42.325Z,17.28
2018-03-25T02:16:42.326Z,17.36
2018-03-25T02:17:42.316Z,17.39
2018-03-25T02:18:42.363Z,17.29
2018-03-25T02:19:42.319Z,17.35
2018-03-25T02:20:42.373Z,17.39
2018-03-25T02:21:42.286Z,17.31
2018-03-25T02:22:42.340Z,17.33
2018-03-25T02:23:42.313Z,17.39
2018-03-25T02:24:42.305Z,17.26
2018-03-25T02:25:42.316Z,17.33
2018-03-25T02:26:42.336Z,17.36
2018-03-25T02:27:42.313Z,17.25
2018-03-25T02:28:42.320Z,17.32
2018-03-25T02:29:42.296Z,17.35
2018-03-25T02:30:42.302Z,17.26
2018-03-25T02:31:42.315Z,17.32
2018-03-25T02:32:42.566Z,17.36
2018-03-25T02:33:42.353Z,17.25
2018-03-25T02:34:42.333Z,17.28
2018-03-25T02:35:42.290Z,17.35
2018-03-25T02:36:42.314Z,17.23
2018-03-25T02:37:42.322Z,17.29
2018-03-25T02:38:42.333Z,17.33
2018-03-25T02:39:42.306Z,17.23
2018-03-25T02:40:42.334Z,17.26
2018-03-25T02:41:42.326Z,17.33
2018-03-25T02:42:42.329Z,17.23
2018-03-25T02:43:42.427Z,17.28
2018-03-25T02:44:42.309Z,17.32
2018-03-25T02:45:42.319Z,17.19
2018-03-25T02:46:42.302Z,17.26
2018-03-25T02:47:42.323Z,17.29
2018-03-25T02:48:42.382Z,17.21
2018-03-25T02:49:42.358Z,17.25
2018-03-25T02:50:42.351Z,17.29
2018-03-25T02:51:42.396Z,17.19
2018-03-25T02:52:42.272Z,17.25
2018-03-25T02:53:42.382Z,17.28
2018-03-25T02:54:42.448Z,17.21
2018-03-25T02:55:42.354Z,17.23
2018-03-25T02:56:42.335Z,17.26
2018-03-25T02:57:42.315Z,17.18
2018-03-25T02:58:42.398Z,17.22
2018-03-25T02:59:42.325Z,17.28
2018-03-25T03:00:42.317Z,17.15
2018-03-25T03:01:42.318Z,17.21
2018-03-25T03:02:42.341Z,17.25
2018-03-25T03:03:42.298Z,17.14
2018-03-25T03:04:42.324Z,17.21
2018-03-25T03:05:42.317Z,17.23
2018-03-25T03:06:42.302Z,17.16
2018-03-25T03:07:42.279Z,17.21
2018-03-25T03:08:42.299Z,17.23
2018-03-25T03:09:42.283Z,17.15
2018-03-25T03:10:42.326Z,17.23
2018-03-25T03:11:42.296Z,17.25
2018-03-25T03:12:42.318Z,17.15
2018-03-25T03:13:42.284Z,17.19
2018-03-25T03:14:42.301Z,17.23
2018-03-25T03:15:42.282Z,17.14
2018-03-25T03:16:42.306Z,17.18
2018-03-25T03:17:42.280Z,17.19
2018-03-25T03:18:42.308Z,17.08
2018-03-25T03:19:42.279Z,17.16
2018-03-25T03:20:42.315Z,17.21
2018-03-25T03:21:42.296Z,17.09
2018-03-25T03:22:42.342Z,17.16
2018-03-25T03:23:42.317Z,17.21
2018-03-25T03:24:42.319Z,17.06
2018-03-25T03:25:42.254Z,17.15
2018-03-25T03:26:42.300Z,17.22
2018-03-25T03:27:42.292Z,17.08
2018-03-25T03:28:42.376Z,17.12
2018-03-25T03:29:42.265Z,17.18
2018-03-25T03:30:42.345Z,17.09
2018-03-25T03:31:42.330Z,17.11
2018-03-25T03:32:42.289Z,17.18
2018-03-25T03:33:42.281Z,17.06
2018-03-25T03:34:42.301Z,17.15
2018-03-25T03:35:42.285Z,17.18
2018-03-25T03:36:42.295Z,17.08
2018-03-25T03:37:42.254Z,17.11
2018-03-25T03:38:42.317Z,17.18
2018-03-25T03:39:42.261Z,17.06
2018-03-25T03:40:42.257Z,17.11
2018-03-25T03:41:42.266Z,17.15
2018-03-25T03:42:42.251Z,17.06
2018-03-25T03:43:42.302Z,17.14
2018-03-25T03:44:42.294Z,17.18
2018-03-25T03:45:42.255Z,17.08
2018-03-25T03:46:42.270Z,17.12
2018-03-25T03:47:42.323Z,17.16
2018-03-25T03:48:42.285Z,17.05
2018-03-25T03:49:42.296Z,17.09
2018-03-25T03:50:42.269Z,17.15
2018-03-25T03:51:42.272Z,17.05
2018-03-25T03:52:42.236Z,17.12
2018-03-25T03:53:42.363Z,17.16
2018-03-25T03:54:42.292Z,17.06
2018-03-25T03:55:42.368Z,17.11
2018-03-25T03:56:42.374Z,17.12
2018-03-25T03:57:42.295Z,17.06
2018-03-25T03:58:42.278Z,17.14
2018-03-25T03:59:42.275Z,17.19
2018-03-25T04:00:42.260Z,17.06
2018-03-25T04:01:42.215Z,17.15
2018-03-25T04:02:42.250Z,17.19
2018-03-25T04:03:42.269Z,17.09
2018-03-25T04:04:42.349Z,17.14
2018-03-25T04:05:42.282Z,17.19
2018-03-25T04:06:42.288Z,17.06
2018-03-25T04:07:42.273Z,17.14
2018-03-25T04:08:42.252Z,17.14
2018-03-25T04:09:42.302Z,17.08
2018-03-25T04:10:42.283Z,17.12
2018-03-25T04:11:42.277Z,17.18
2018-03-25T04:12:42.278Z,17.11
2018-03-25T04:13:42.286Z,17.16
2018-03-25T04:14:42.289Z,17.19
2018-03-25T04:15:42.277Z,17.15
2018-03-25T04:16:42.271Z,17.19
2018-03-25T04:17:42.258Z,17.21
2018-03-25T04:18:42.330Z,17.21
2018-03-25T04:19:42.293Z,17.21
2018-03-25T04:20:42.423Z,17.26
2018-03-25T04:21:42.297Z,17.28
2018-03-25T04:22:42.252Z,17.29
2018-03-25T04:23:42.280Z,17.32
2018-03-25T04:24:42.346Z,17.32
2018-03-25T04:25:42.295Z,17.35
2018-03-25T04:26:42.262Z,17.38
2018-03-25T04:27:42.280Z,17.39
2018-03-25T04:28:42.272Z,17.4
2018-03-25T04:29:42.254Z,17.45
2018-03-25T04:30:42.285Z,17.43
2018-03-25T04:31:42.274Z,17.48
2018-03-25T04:32:42.321Z,17.5
2018-03-25T04:33:42.261Z,17.48
2018-03-25T04:34:42.270Z,17.49
2018-03-25T04:35:42.259Z,17.52
2018-03-25T04:36:42.298Z,17.53
2018-03-25T04:37:42.300Z,17.54
2018-03-25T04:38:42.260Z,17.57
2018-03-25T04:39:42.267Z,17.59
2018-03-25T04:40:42.241Z,17.6
2018-03-25T04:41:42.274Z,17.6
2018-03-25T04:42:42.232Z,17.63
2018-03-25T04:43:42.251Z,17.63
2018-03-25T04:44:42.252Z,17.66
2018-03-25T04:45:42.263Z,17.66
2018-03-25T04:46:42.268Z,17.68
2018-03-25T04:47:42.279Z,17.74
2018-03-25T04:48:42.286Z,17.68
2018-03-25T04:49:42.297Z,17.73
2018-03-25T04:50:42.267Z,17.73
2018-03-25T04:51:42.254Z,17.73
2018-03-25T04:52:42.273Z,17.71
2018-03-25T04:53:42.228Z,17.77
2018-03-25T04:54:42.277Z,17.76
2018-03-25T04:55:42.328Z,17.77
2018-03-25T04:56:42.242Z,17.81
2018-03-25T04:57:42.229Z,17.8
2018-03-25T04:58:42.276Z,17.81
2018-03-25T04:59:42.241Z,17.81
2018-03-25T05:00:42.248Z,17.82
2018-03-25T05:01:42.286Z,17.82
2018-03-25T05:02:42.313Z,17.85
2018-03-25T05:03:42.288Z,17.85
2018-03-25T05:04:42.277Z,17.85
2018-03-25T05:05:42.249Z,17.88
2018-03-25T05:06:42.272Z,17.87
2018-03-25T05:07:42.317Z,17.89
2018-03-25T05:08:42.239Z,17.93
2018-03-25T05:09:42.260Z,17.93
2018-03-25T05:10:42.271Z,17.94
2018-03-25T05:11:42.248Z,17.94
2018-03-25T05:12:42.250Z,17.94
2018-03-25T05:13:42.275Z,17.97
2018-03-25T05:14:42.242Z,18
2018-03-25T05:15:42.281Z,17.98
2018-03-25T05:16:42.239Z,17.98
2018-03-25T05:17:42.263Z,18.01
2018-03-25T05:18:42.262Z,18
2018-03-25T05:19:42.233Z,18.01
2018-03-25T05:20:42.266Z,18.02
2018-03-25T05:21:42.265Z,18
2018-03-25T05:22:42.274Z,18.02
2018-03-25T05:23:42.242Z,18.07
2018-03-25T05:24:42.272Z,18.05
2018-03-25T05:25:42.273Z,18.08
2018-03-25T05:26:42.297Z,18.08
2018-03-25T05:27:42.302Z,18.08
2018-03-25T05:28:42.235Z,18.08
2018-03-25T05:29:42.227Z,18.09
2018-03-25T05:30:42.238Z,18.12
2018-03-25T05:31:42.242Z,18.08
2018-03-25T05:32:42.252Z,18.12
2018-03-25T05:33:42.256Z,18.09
2018-03-25T05:34:42.323Z,18.09
2018-03-25T05:35:42.237Z,18.13
2018-03-25T05:36:42.233Z,18.12
2018-03-25T05:37:42.239Z,18.16
2018-03-25T05:38:42.214Z,18.16
2018-03-25T05:39:42.249Z,18.15
2018-03-25T05:40:42.276Z,18.15
2018-03-25T05:41:42.226Z,18.18
2018-03-25T05:42:42.229Z,18.19
2018-03-25T05:43:42.241Z,18.19
2018-03-25T05:44:42.226Z,18.21
2018-03-25T05:45:42.247Z,18.19
2018-03-25T05:46:42.250Z,18.19
2018-03-25T05:47:42.223Z,18.22
2018-03-25T05:48:42.245Z,18.22
2018-03-25T05:49:42.257Z,18.23
2018-03-25T05:50:42.229Z,18.23
2018-03-25T05:51:42.256Z,18.25
2018-03-25T05:52:42.258Z,18.25
2018-03-25T05:53:42.233Z,18.26
2018-03-25T05:54:42.261Z,18.25
2018-03-25T05:55:42.212Z,18.26
2018-03-25T05:56:42.345Z,18.26
2018-03-25T05:57:42.365Z,18.28
2018-03-25T05:58:42.180Z,18.25
2018-03-25T05:59:42.250Z,18.29
2018-03-25T06:00:42.212Z,18.28
2018-03-25T06:01:42.262Z,18.29
2018-03-25T06:02:42.225Z,18.29
2018-03-25T06:03:42.274Z,18.28
2018-03-25T06:04:42.322Z,18.3
2018-03-25T06:05:42.230Z,18.29
2018-03-25T06:06:42.224Z,18.29
2018-03-25T06:07:42.230Z,18.3
2018-03-25T06:08:42.363Z,18.3
2018-03-25T06:09:42.247Z,18.32
2018-03-25T06:10:42.250Z,18.35
2018-03-25T06:11:42.266Z,18.33
2018-03-25T06:12:42.259Z,18.32
2018-03-25T06:13:42.246Z,18.33
2018-03-25T06:14:42.204Z,18.32
2018-03-25T06:15:42.225Z,18.3
2018-03-25T06:16:42.262Z,18.33
2018-03-25T06:17:42.189Z,18.35
2018-03-25T06:18:42.243Z,18.3
2018-03-25T06:19:42.268Z,18.35
2018-03-25T06:20:42.252Z,18.37
2018-03-25T06:21:42.235Z,18.35
2018-03-25T06:22:42.229Z,18.36
2018-03-25T06:23:42.232Z,18.37
2018-03-25T06:24:42.216Z,18.35
2018-03-25T06:25:42.193Z,18.37
2018-03-25T06:26:42.249Z,18.35
2018-03-25T06:27:42.196Z,18.36
2018-03-25T06:28:42.240Z,18.37
2018-03-25T06:29:42.279Z,18.39
2018-03-25T06:30:42.190Z,18.35
2018-03-25T06:31:42.233Z,18.39
2018-03-25T06:32:42.234Z,18.37
2018-03-25T06:33:42.195Z,18.37
2018-03-25T06:34:42.227Z,18.37
2018-03-25T06:35:42.227Z,18.41
2018-03-25T06:36:42.216Z,18.4
2018-03-25T06:37:42.226Z,18.39
2018-03-25T06:38:42.225Z,18.41
2018-03-25T06:39:42.265Z,18.4
2018-03-25T06:40:42.258Z,18.43
2018-03-25T06:41:42.209Z,18.43
2018-03-25T06:42:42.236Z,18.39
2018-03-25T06:43:42.224Z,18.44
2018-03-25T06:44:42.275Z,18.46
2018-03-25T06:45:42.200Z,18.41
2018-03-25T06:46:42.215Z,18.43
2018-03-25T06:47:42.238Z,18.46
2018-03-25T06:48:42.198Z,18.43
2018-03-25T06:49:42.223Z,18.44
2018-03-25T06:50:42.198Z,18.47
2018-03-25T06:51:42.240Z,18.41
2018-03-25T06:52:42.242Z,18.41
2018-03-25T06:53:42.216Z,18.46
2018-03-25T06:54:42.228Z,18.44
2018-03-25T06:55:42.223Z,18.44
2018-03-25T06:56:42.230Z,18.46
2018-03-25T06:57:42.203Z,18.46
2018-03-25T06:58:42.188Z,18.47
2018-03-25T06:59:42.279Z,18.47
2018-03-25T07:00:42.215Z,18.43
2018-03-25T07:01:42.190Z,18.46
2018-03-25T07:02:42.254Z,18.47
2018-03-25T07:03:42.229Z,18.47
2018-03-25T07:04:42.233Z,18.5
2018-03-25T07:05:42.244Z,18.51
2018-03-25T07:06:42.197Z,18.5
2018-03-25T07:07:42.250Z,18.49
2018-03-25T07:08:42.681Z,18.49
2018-03-25T07:09:42.245Z,18.49
2018-03-25T07:10:42.187Z,18.5
2018-03-25T07:11:42.241Z,18.53
2018-03-25T07:12:42.217Z,18.5
2018-03-25T07:13:42.217Z,18.51
2018-03-25T07:14:42.278Z,18.53
2018-03-25T07:15:42.250Z,18.47
2018-03-25T07:16:42.231Z,18.51
2018-03-25T07:17:42.295Z,18.53
2018-03-25T07:18:42.202Z,18.51
2018-03-25T07:19:42.175Z,18.51
2018-03-25T07:20:42.219Z,18.56
2018-03-25T07:21:42.214Z,18.53
2018-03-25T07:22:42.226Z,18.56
2018-03-25T07:23:42.213Z,18.57
2018-03-25T07:24:42.202Z,18.53
2018-03-25T07:25:42.272Z,18.56
2018-03-25T07:26:42.193Z,18.56
2018-03-25T07:27:42.235Z,18.54
2018-03-25T07:28:42.206Z,18.54
2018-03-25T07:29:42.222Z,18.57
2018-03-25T07:30:42.271Z,18.54
2018-03-25T07:31:42.228Z,18.58
2018-03-25T07:32:42.214Z,18.58
2018-03-25T07:33:42.214Z,18.57
2018-03-25T07:34:42.265Z,18.57
2018-03-25T07:35:42.194Z,18.58
2018-03-25T07:36:42.234Z,18.58
2018-03-25T07:37:42.686Z,18.6
2018-03-25T07:38:42.209Z,18.6
2018-03-25T07:39:42.179Z,18.58
2018-03-25T07:40:42.214Z,18.6
2018-03-25T07:41:42.240Z,18.62
2018-03-25T07:42:42.221Z,18.57
2018-03-25T07:43:42.195Z,18.58
2018-03-25T07:44:42.218Z,18.62
2018-03-25T07:45:42.211Z,18.62
2018-03-25T07:46:42.288Z,18.63
2018-03-25T07:47:42.195Z,18.63
2018-03-25T07:48:42.238Z,18.62
2018-03-25T07:49:42.224Z,18.6
2018-03-25T07:50:42.183Z,18.62
2018-03-25T07:51:42.198Z,18.6
2018-03-25T07:52:42.167Z,18.63
2018-03-25T07:53:42.198Z,18.63
2018-03-25T07:54:42.215Z,18.62
2018-03-25T07:55:42.203Z,18.63
2018-03-25T07:56:42.213Z,18.66
2018-03-25T07:57:42.275Z,18.64
2018-03-25T07:58:42.314Z,18.64
2018-03-25T07:59:42.191Z,18.66
2018-03-25T08:00:42.220Z,18.63
2018-03-25T08:01:42.247Z,18.64
2018-03-25T08:02:42.200Z,18.68
2018-03-25T08:03:42.175Z,18.6
2018-03-25T08:04:42.219Z,18.63
2018-03-25T08:05:42.181Z,18.66
2018-03-25T08:06:42.190Z,18.67
2018-03-25T08:07:42.209Z,18.68
2018-03-25T08:08:42.188Z,18.68
2018-03-25T08:09:42.211Z,18.66
2018-03-25T08:10:42.152Z,18.67
2018-03-25T08:11:42.189Z,18.68
2018-03-25T08:12:42.220Z,18.67
2018-03-25T08:13:42.243Z,18.67
2018-03-25T08:14:42.189Z,18.71
2018-03-25T08:15:42.153Z,18.67
2018-03-25T08:16:42.202Z,18.7
2018-03-25T08:17:42.194Z,18.73
2018-03-25T08:18:42.191Z,18.67
2018-03-25T08:19:42.198Z,18.7
2018-03-25T08:20:42.285Z,18.7
2018-03-25T08:21:42.748Z,18.67
2018-03-25T08:22:42.271Z,18.67
2018-03-25T08:23:42.311Z,18.7
2018-03-25T08:24:42.217Z,18.64
2018-03-25T08:25:42.163Z,18.7
2018-03-25T08:26:42.187Z,18.71
2018-03-25T08:27:42.152Z,18.66
2018-03-25T08:28:42.195Z,18.67
2018-03-25T08:29:42.246Z,18.67
2018-03-25T08:30:42.188Z,18.64
2018-03-25T08:31:42.223Z,18.68
2018-03-25T08:32:42.205Z,18.67
2018-03-25T08:33:42.186Z,18.64
2018-03-25T08:34:42.212Z,18.67
2018-03-25T08:35:42.270Z,18.67
2018-03-25T08:36:42.188Z,18.67
2018-03-25T08:37:42.167Z,18.7
2018-03-25T08:38:42.274Z,18.68
2018-03-25T08:39:42.185Z,18.66
2018-03-25T08:40:42.178Z,18.68
2018-03-25T08:41:42.204Z,18.68
2018-03-25T08:42:42.158Z,18.66
2018-03-25T08:43:42.179Z,18.64
2018-03-25T08:44:42.194Z,18.68
2018-03-25T08:45:42.282Z,18.5
2018-03-25T08:46:42.186Z,18.39
2018-03-25T08:47:42.202Z,18.25
2018-03-25T08:48:42.160Z,17.66
2018-03-25T08:49:42.152Z,17.63
2018-03-25T08:50:42.171Z,17.54
2018-03-25T08:51:42.198Z,17.08
2018-03-25T08:52:42.150Z,17.06
2018-03-25T08:53:42.206Z,17.16
2018-03-25T08:54:42.145Z,16.87
2018-03-25T08:55:42.377Z,16.95
2018-03-25T08:56:42.194Z,16.91
2018-03-25T08:57:42.244Z,16.59
2018-03-25T08:58:42.175Z,16.67
2018-03-25T08:59:42.188Z,16.9
2018-03-25T09:00:42.197Z,17.04
2018-03-25T09:01:42.271Z,17.25
2018-03-25T09:02:42.199Z,17.4
2018-03-25T09:03:42.171Z,17.5
2018-03-25T09:04:42.212Z,17.59
2018-03-25T09:05:42.219Z,17.68
2018-03-25T09:06:42.233Z,17.73
2018-03-25T09:07:42.205Z,17.77
2018-03-25T09:08:42.197Z,17.82
2018-03-25T09:09:42.188Z,17.84
2018-03-25T09:10:42.143Z,17.87
2018-03-25T09:11:42.235Z,17.91
2018-03-25T09:12:42.138Z,17.95
2018-03-25T09:13:42.208Z,17.97
2018-03-25T09:14:42.217Z,18
2018-03-25T09:15:42.184Z,18.02
2018-03-25T09:16:42.172Z,18.05
2018-03-25T09:17:42.267Z,18.11
2018-03-25T09:18:42.190Z,18.12
2018-03-25T09:19:42.181Z,18.18
2018-03-25T09:20:42.214Z,18.21
2018-03-25T09:21:42.264Z,18.3
2018-03-25T09:22:42.158Z,18.33
2018-03-25T09:23:42.249Z,18.37
2018-03-25T09:24:42.186Z,18.46
2018-03-25T09:25:42.178Z,18.46
2018-03-25T09:26:42.161Z,18.44
2018-03-25T09:27:42.192Z,18.49
2018-03-25T09:28:42.192Z,18.5
2018-03-25T09:29:42.176Z,18.53
2018-03-25T09:30:42.180Z,18.56
2018-03-25T09:31:42.169Z,18.57
2018-03-25T09:32:42.215Z,18.58
2018-03-25T09:33:42.179Z,18.63
2018-03-25T09:34:42.174Z,18.62
2018-03-25T09:35:42.169Z,18.64
2018-03-25T09:36:42.128Z,18.64
2018-03-25T09:37:42.152Z,18.64
2018-03-25T09:38:42.159Z,18.63
2018-03-25T09:39:42.129Z,18.64
2018-03-25T09:40:42.128Z,18.63
2018-03-25T09:41:42.159Z,18.67
2018-03-25T09:42:42.157Z,18.6
2018-03-25T09:43:42.136Z,18.6
2018-03-25T09:44:42.166Z,18.64
2018-03-25T09:45:42.157Z,18.64
2018-03-25T09:46:42.124Z,18.68
2018-03-25T09:47:42.145Z,18.67
2018-03-25T09:48:42.185Z,18.67
2018-03-25T09:49:42.170Z,18.7
2018-03-25T09:50:42.147Z,18.73
2018-03-25T09:51:42.161Z,18.68
2018-03-25T09:52:42.414Z,18.71
2018-03-25T09:53:42.162Z,18.73
2018-03-25T09:54:42.166Z,18.71
2018-03-25T09:55:42.174Z,18.73
2018-03-25T09:56:42.162Z,18.75
2018-03-25T09:57:42.114Z,18.71
2018-03-25T09:58:42.728Z,18.74
2018-03-25T09:59:42.277Z,18.77
2018-03-25T10:00:42.163Z,18.73
2018-03-25T10:01:42.206Z,18.78
2018-03-25T10:02:42.211Z,18.8
2018-03-25T10:03:42.149Z,18.75
2018-03-25T10:04:42.946Z,18.83
2018-03-25T10:05:42.161Z,18.83
2018-03-25T10:06:42.197Z,18.8
2018-03-25T10:07:42.136Z,18.81
2018-03-25T10:08:42.150Z,18.84
2018-03-25T10:09:42.187Z,18.81
2018-03-25T10:10:42.114Z,18.8
2018-03-25T10:11:42.189Z,18.81
2018-03-25T10:12:42.161Z,18.81
2018-03-25T10:13:42.178Z,18.84
2018-03-25T10:14:42.301Z,18.85
2018-03-25T10:15:42.170Z,18.83
2018-03-25T10:16:42.293Z,18.87
2018-03-25T10:17:42.163Z,18.87
2018-03-25T10:18:42.232Z,18.97
2018-03-25T10:19:00.660Z,19.12
2018-03-25T10:19:46.941Z,19.15
2018-03-25T10:20:46.940Z,19.16
2018-03-25T10:21:46.948Z,19.16
2018-03-25T10:22:46.927Z,19.15
2018-03-25T10:23:46.940Z,19.18
2018-03-25T10:24:46.950Z,19.19
2018-03-25T10:25:46.959Z,19.2
2018-03-25T10:26:46.971Z,19.22
2018-03-25T10:27:47.120Z,19.3
2018-03-25T10:28:46.920Z,19.32
2018-03-25T10:29:46.952Z,19.35
2018-03-25T10:30:46.926Z,19.35
2018-03-25T10:31:46.909Z,19.32
2018-03-25T10:32:18.818Z,19.35
2018-03-25T10:33:18.933Z,19.36
2018-03-25T10:34:18.874Z,19.42
2018-03-25T10:35:18.849Z,19.42
2018-03-25T10:36:18.926Z,19.49
2018-03-25T10:37:18.888Z,19.46
2018-03-25T10:38:18.927Z,19.46
2018-03-25T10:39:18.878Z,19.47
2018-03-25T10:40:18.889Z,19.47
2018-03-25T10:40:59.161Z,19.49
2018-03-25T10:41:59.149Z,19.5
2018-03-25T10:42:59.146Z,19.49
2018-03-25T10:43:59.144Z,19.47
2018-03-25T10:44:59.184Z,19.46
2018-03-25T10:45:59.140Z,19.47
2018-03-25T10:46:59.167Z,19.49
2018-03-25T10:47:59.124Z,19.46
2018-03-25T10:48:59.135Z,19.49
2018-03-25T10:49:59.113Z,19.46
2018-03-25T10:50:59.147Z,19.46
2018-03-25T10:51:59.139Z,19.46
2018-03-25T10:52:59.160Z,19.47
2018-03-25T10:53:59.148Z,19.53
2018-03-25T10:54:59.145Z,19.58
2018-03-25T10:55:59.179Z,19.58
2018-03-25T10:56:59.166Z,19.54
2018-03-25T10:57:59.173Z,19.56
2018-03-25T10:58:59.147Z,19.53
2018-03-25T10:59:59.170Z,19.58
2018-03-25T11:00:59.155Z,19.56
2018-03-25T11:01:59.252Z,19.54
2018-03-25T11:02:59.300Z,19.57
2018-03-25T11:03:59.177Z,19.57
2018-03-25T11:04:59.248Z,19.6
2018-03-25T11:05:59.217Z,19.64
2018-03-25T11:10:24.708Z,19.85
2018-03-25T11:11:24.688Z,19.78
2018-03-25T11:12:03.313Z,19.78
2018-03-25T11:12:41.254Z,19.89
2018-03-25T11:13:41.307Z,19.85
2018-03-25T11:14:41.322Z,19.77
2018-03-25T11:15:41.351Z,19.71
2018-03-25T11:16:41.267Z,19.58
2018-03-25T11:17:41.287Z,19.58
2018-03-25T11:18:41.386Z,19.56
2018-03-25T11:19:41.297Z,19.47
2018-03-25T11:20:41.333Z,19.46
2018-03-25T11:21:41.275Z,19.42
2018-03-25T11:22:41.299Z,19.42
2018-03-25T11:23:41.318Z,19.37
2018-03-25T11:24:41.595Z,19.4
2018-03-25T11:25:41.237Z,19.35
2018-03-25T11:26:41.383Z,19.37
2018-03-25T11:27:41.364Z,19.33
2018-03-25T11:28:41.249Z,19.33
2018-03-25T11:29:41.274Z,19.32
2018-03-25T11:30:41.254Z,19.33
2018-03-25T11:31:41.256Z,19.29
2018-03-25T11:32:41.274Z,19.3
2018-03-25T11:33:41.231Z,19.3
2018-03-25T11:34:41.240Z,19.29
2018-03-25T11:35:41.316Z,19.27
2018-03-25T11:36:41.322Z,19.32
2018-03-25T11:37:41.263Z,19.27
2018-03-25T11:38:41.240Z,19.26
2018-03-25T11:39:41.255Z,19.27
2018-03-25T11:40:41.234Z,19.27
2018-03-25T11:41:41.236Z,19.25
2018-03-25T11:42:41.359Z,19.27
2018-03-25T11:43:41.382Z,19.26
2018-03-25T11:44:41.189Z,19.26
2018-03-25T11:45:41.223Z,19.27
2018-03-25T11:46:41.250Z,19.25
2018-03-25T11:47:41.228Z,19.29
2018-03-25T11:48:41.228Z,19.27
2018-03-25T11:49:41.250Z,19.25
2018-03-25T11:50:41.231Z,19.22
2018-03-25T11:51:41.337Z,19.26
2018-03-25T11:52:41.289Z,19.2
2018-03-25T11:53:41.243Z,19.23
2018-03-25T11:54:41.397Z,19.23
2018-03-25T11:55:41.247Z,19.19
2018-03-25T11:56:41.222Z,19.18
2018-03-25T11:57:41.310Z,19.19
2018-03-25T11:58:41.266Z,19.15
2018-03-25T11:59:41.263Z,19.16
2018-03-25T12:00:41.251Z,19.19
2018-03-25T12:01:41.245Z,19.16
2018-03-25T12:02:41.243Z,19.16
2018-03-25T12:03:41.251Z,19.18
2018-03-25T12:04:41.266Z,19.13
2018-03-25T12:05:41.256Z,19.13
2018-03-25T12:06:41.263Z,19.16
2018-03-25T12:07:41.545Z,19.13
2018-03-25T12:08:41.235Z,19.15
2018-03-25T12:09:41.311Z,19.15
2018-03-25T12:10:41.243Z,19.12
2018-03-25T12:11:41.207Z,19.13
2018-03-25T12:12:41.334Z,19.13
2018-03-25T12:13:41.277Z,19.12
2018-03-25T12:14:41.244Z,19.13
2018-03-25T12:15:41.249Z,19.15
2018-03-25T12:16:41.287Z,19.12
2018-03-25T12:17:41.255Z,19.12
2018-03-25T12:18:41.238Z,19.15
2018-03-25T12:19:41.243Z,19.11
2018-03-25T12:20:41.240Z,19.12
2018-03-25T12:21:41.335Z,19.15
2018-03-25T12:22:41.248Z,19.12
2018-03-25T12:23:41.269Z,19.11
2018-03-25T12:24:41.375Z,19.11
2018-03-25T12:25:41.243Z,19.11
2018-03-25T12:26:41.281Z,19.09
2018-03-25T12:27:41.281Z,19.12
2018-03-25T12:28:41.242Z,19.09
2018-03-25T12:29:41.261Z,19.11
2018-03-25T12:30:41.255Z,19.13
2018-03-25T12:31:41.207Z,19.12
2018-03-25T12:32:41.266Z,19.13
2018-03-25T12:33:41.249Z,19.16
2018-03-25T12:34:41.264Z,19.15
2018-03-25T12:35:41.263Z,19.13
2018-03-25T12:36:41.237Z,19.16
2018-03-25T12:37:41.209Z,19.16
2018-03-25T12:38:41.535Z,19.13
2018-03-25T12:39:41.351Z,19.19
2018-03-25T12:40:41.249Z,19.16
2018-03-25T12:41:41.289Z,19.16
2018-03-25T12:42:41.240Z,19.16
2018-03-25T12:43:41.282Z,19.13
2018-03-25T12:44:41.559Z,19.16
2018-03-25T12:45:41.253Z,19.18
2018-03-25T12:46:41.261Z,19.18
2018-03-25T12:47:41.273Z,19.18
2018-03-25T12:48:41.261Z,19.2
2018-03-25T12:49:41.234Z,19.18
2018-03-25T12:50:41.246Z,19.18
2018-03-25T12:51:41.235Z,19.2
2018-03-25T12:52:41.271Z,19.15
2018-03-25T12:53:41.236Z,19.11
2018-03-25T12:54:41.254Z,19.16
2018-03-25T12:55:41.333Z,19.09
2018-03-25T12:56:41.303Z,19.12